map of ERC home
Great Circle Mapper logo
ERC - Airport
Location
City:  Erzincan, Turkey
ICAO / IATA:LTCD / ERC

Details
Type:Airport (Aerodrome, Airfield)
Use:Public/Civil, Military
Latitude:3942'37"N (39.710203)
Longitude:3931'37"E (39.527003)
Datum:WGS 1984
Elevation:3783 ft (1153 m)
Runways:2
Longest:9842 × 148 ft (3000 × 45 m), paved

Time
Time Zone:UTC+2 (DST+3)
Local Time:

Weather
METAR:LTCD 181450Z 19004KT 150V210 9999 FEW033CB SCT045 20/07 Q1013 TEMPO FM1600 -TSRA

Related Locations
Nearby:
Farthest:NTAV: 11263 mi / 18126 km
Raivavae, Tubuai Islands, Austral Islands, PF

Find:

   beyond  
but within

Other Information
Maps:
NOTAMs:
Links:
Sources:

  
flag of Turkey   

Sectional Chart

Flight Planning
at skyvector.com

Satellite Image

Google Maps Satellite View

 

Copyright © 2004-2014 Karl L. Swartz. All rights reserved.
The Great Circle Mapper name and logo are trademarks of the Great Circle Mapper.
All other trademarks mentioned herein belong to their respective owners.
Please see credits for attibutions and further copyright information.

  Follow gcmap on Facebook Follow gcmap on Twitter

hCard Microformat

Geo Microformat